createdAt,value
2023-05-19T00:03:55.291Z,100084.97
2023-05-19T00:06:29.373Z,100087.44
2023-05-19T00:09:02.111Z,100074.56
2023-05-19T00:11:30.956Z,100104.16
2023-05-19T00:14:00.531Z,100093.38
2023-05-19T00:16:29.923Z,100092.63
2023-05-19T00:19:00.496Z,100104.63
2023-05-19T00:21:31.450Z,100097.22
2023-05-19T00:23:59.363Z,100111.88
2023-05-19T00:26:27.897Z,100107.50
2023-05-19T00:29:01.099Z,100114.94
2023-05-19T00:31:28.873Z,100110.75
2023-05-19T00:33:56.495Z,100126.88
2023-05-19T00:36:25.144Z,100125.91
2023-05-19T00:38:52.637Z,100133.53
2023-05-19T00:41:21.284Z,100130.00
2023-05-19T00:43:49.646Z,100136.66
2023-05-19T00:46:19.459Z,100106.94
2023-05-19T00:48:47.034Z,100129.31
2023-05-19T00:51:17.169Z,100121.84
2023-05-19T00:53:49.478Z,100073.13
2023-05-19T00:56:17.727Z,100136.91
2023-05-19T00:58:45.852Z,100139.06
2023-05-19T01:01:14.807Z,100131.81
2023-05-19T01:04:11.538Z,100142.06
2023-05-19T01:06:39.384Z,100140.31
2023-05-19T01:09:06.812Z,100143.19
2023-05-19T01:11:35.508Z,100135.97
2023-05-19T01:14:03.215Z,100143.72
2023-05-19T01:17:29.293Z,100116.53
2023-05-19T01:20:06.882Z,100141.81
2023-05-19T01:22:47.640Z,100146.81
2023-05-19T01:25:50.925Z,100151.81
2023-05-19T01:28:47.032Z,100153.72
2023-05-19T01:31:17.247Z,100150.44
2023-05-19T01:33:46.330Z,100148.03
2023-05-19T01:36:15.965Z,100154.84
2023-05-19T01:38:44.157Z,100100.84
2023-05-19T01:41:12.087Z,100158.38
2023-05-19T01:43:40.993Z,100153.31
2023-05-19T01:46:09.325Z,100159.25
2023-05-19T01:48:37.399Z,100164.06
2023-05-19T01:51:05.224Z,100159.94
2023-05-19T01:53:32.591Z,100172.66
2023-05-19T01:56:00.908Z,100162.72
2023-05-19T01:58:49.034Z,100173.88
2023-05-19T02:01:36.546Z,100134.91
2023-05-19T02:04:19.266Z,100178.38
2023-05-19T02:07:03.946Z,100187.13
2023-05-19T02:10:05.127Z,100180.66
2023-05-19T02:12:36.156Z,100187.25
2023-05-19T02:15:22.215Z,100188.44
2023-05-19T02:17:54.558Z,100194.53
2023-05-19T02:20:42.729Z,100193.72
2023-05-19T02:23:10.262Z,100199.50
2023-05-19T02:25:37.732Z,100191.88
2023-05-19T02:28:06.929Z,100196.16
2023-05-19T02:30:34.805Z,100212.38
2023-05-19T02:33:02.429Z,100204.75
2023-05-19T02:35:30.301Z,100205.34
2023-05-19T02:37:58.048Z,100220.50
2023-05-19T02:40:25.913Z,100210.22
2023-05-19T02:42:53.902Z,100217.13
2023-05-19T02:45:21.400Z,100217.63
2023-05-19T02:47:48.949Z,100230.19
2023-05-19T02:50:17.071Z,100184.84
2023-05-19T02:52:44.809Z,100223.47
2023-05-19T02:55:17.229Z,100220.34
2023-05-19T02:57:45.136Z,100206.91
2023-05-19T03:00:13.075Z,100219.91
2023-05-19T03:02:41.607Z,100223.50
2023-05-19T03:05:10.466Z,100218.47
